sensor_id;sensor_type;location;lat;lon;timestamp;P1;durP1;ratioP1;P2;durP2;ratioP2
13868;SDS011;7004;48.206;16.402;2023-06-14T00:01:06;4.50;;;3.80;;
13868;SDS011;7004;48.206;16.402;2023-06-14T00:03:34;4.37;;;3.67;;
13868;SDS011;7004;48.206;16.402;2023-06-14T00:06:03;4.67;;;3.60;;
13868;SDS011;7004;48.206;16.402;2023-06-14T00:08:29;6.60;;;3.50;;
13868;SDS011;7004;48.206;16.402;2023-06-14T00:10:55;4.97;;;3.97;;
13868;SDS011;7004;48.206;16.402;2023-06-14T00:13:22;5.03;;;3.70;;
13868;SDS011;7004;48.206;16.402;2023-06-14T00:15:48;6.03;;;3.93;;
13868;SDS011;7004;48.206;16.402;2023-06-14T00:18:15;4.27;;;3.83;;
13868;SDS011;7004;48.206;16.402;2023-06-14T00:20:41;5.93;;;3.80;;
13868;SDS011;7004;48.206;16.402;2023-06-14T00:23:08;4.70;;;3.80;;
13868;SDS011;7004;48.206;16.402;2023-06-14T00:25:34;3.43;;;3.13;;
13868;SDS011;7004;48.206;16.402;2023-06-14T00:28:00;6.20;;;3.80;;
13868;SDS011;7004;48.206;16.402;2023-06-14T00:30:26;5.23;;;3.70;;
13868;SDS011;7004;48.206;16.402;2023-06-14T00:32:56;6.27;;;4.00;;
13868;SDS011;7004;48.206;16.402;2023-06-14T00:35:23;4.10;;;3.70;;
13868;SDS011;7004;48.206;16.402;2023-06-14T00:37:50;5.63;;;4.20;;
13868;SDS011;7004;48.206;16.402;2023-06-14T00:40:17;6.50;;;4.13;;
13868;SDS011;7004;48.206;16.402;2023-06-14T00:42:43;4.47;;;3.90;;
13868;SDS011;7004;48.206;16.402;2023-06-14T00:45:09;5.43;;;3.90;;
13868;SDS011;7004;48.206;16.402;2023-06-14T00:47:37;4.87;;;4.00;;
13868;SDS011;7004;48.206;16.402;2023-06-14T00:50:06;6.17;;;3.73;;
13868;SDS011;7004;48.206;16.402;2023-06-14T00:52:33;5.07;;;3.80;;
13868;SDS011;7004;48.206;16.402;2023-06-14T00:54:59;5.10;;;4.60;;
13868;SDS011;7004;48.206;16.402;2023-06-14T00:57:27;4.87;;;4.23;;
13868;SDS011;7004;48.206;16.402;2023-06-14T00:59:54;4.97;;;4.47;;
13868;SDS011;7004;48.206;16.402;2023-06-14T01:02:21;6.50;;;3.93;;
13868;SDS011;7004;48.206;16.402;2023-06-14T01:04:48;6.40;;;4.10;;
13868;SDS011;7004;48.206;16.402;2023-06-14T01:15:35;5.17;;;4.27;;
13868;SDS011;7004;48.206;16.402;2023-06-14T01:18:04;7.30;;;4.60;;
13868;SDS011;7004;48.206;16.402;2023-06-14T01:20:31;5.43;;;4.57;;
13868;SDS011;7004;48.206;16.402;2023-06-14T01:23:02;6.27;;;4.80;;
13868;SDS011;7004;48.206;16.402;2023-06-14T01:25:28;5.03;;;4.03;;
13868;SDS011;7004;48.206;16.402;2023-06-14T01:28:03;5.20;;;4.33;;
13868;SDS011;7004;48.206;16.402;2023-06-14T01:30:36;5.03;;;4.40;;
13868;SDS011;7004;48.206;16.402;2023-06-14T01:33:13;6.00;;;4.50;;
13868;SDS011;7004;48.206;16.402;2023-06-14T01:35:43;4.90;;;4.17;;
13868;SDS011;7004;48.206;16.402;2023-06-14T01:38:13;4.97;;;4.20;;
13868;SDS011;7004;48.206;16.402;2023-06-14T01:40:43;4.90;;;4.23;;
13868;SDS011;7004;48.206;16.402;2023-06-14T01:43:11;5.20;;;4.60;;
13868;SDS011;7004;48.206;16.402;2023-06-14T01:45:40;5.37;;;4.20;;
13868;SDS011;7004;48.206;16.402;2023-06-14T01:48:08;4.63;;;4.10;;
13868;SDS011;7004;48.206;16.402;2023-06-14T01:50:35;4.30;;;3.90;;
13868;SDS011;7004;48.206;16.402;2023-06-14T01:53:01;4.10;;;3.70;;
13868;SDS011;7004;48.206;16.402;2023-06-14T01:55:27;4.37;;;3.97;;
13868;SDS011;7004;48.206;16.402;2023-06-14T01:57:53;4.63;;;4.13;;
13868;SDS011;7004;48.206;16.402;2023-06-14T02:00:20;5.53;;;3.90;;
13868;SDS011;7004;48.206;16.402;2023-06-14T02:02:48;4.47;;;3.73;;
13868;SDS011;7004;48.206;16.402;2023-06-14T02:05:15;4.47;;;4.03;;
13868;SDS011;7004;48.206;16.402;2023-06-14T02:07:44;5.03;;;3.90;;
13868;SDS011;7004;48.206;16.402;2023-06-14T02:10:11;5.50;;;4.23;;
13868;SDS011;7004;48.206;16.402;2023-06-14T02:12:37;5.50;;;4.37;;
13868;SDS011;7004;48.206;16.402;2023-06-14T02:15:03;4.60;;;3.90;;
13868;SDS011;7004;48.206;16.402;2023-06-14T02:17:33;5.30;;;3.93;;
13868;SDS011;7004;48.206;16.402;2023-06-14T02:20:00;4.23;;;3.83;;
13868;SDS011;7004;48.206;16.402;2023-06-14T02:22:26;8.60;;;4.47;;
13868;SDS011;7004;48.206;16.402;2023-06-14T02:24:52;6.70;;;4.20;;
13868;SDS011;7004;48.206;16.402;2023-06-14T02:27:18;4.37;;;3.97;;
13868;SDS011;7004;48.206;16.402;2023-06-14T02:29:45;6.37;;;4.13;;
13868;SDS011;7004;48.206;16.402;2023-06-14T02:32:11;5.80;;;4.67;;
13868;SDS011;7004;48.206;16.402;2023-06-14T02:34:37;4.57;;;4.17;;
13868;SDS011;7004;48.206;16.402;2023-06-14T02:37:06;7.47;;;4.37;;
13868;SDS011;7004;48.206;16.402;2023-06-14T02:39:33;4.27;;;3.87;;
13868;SDS011;7004;48.206;16.402;2023-06-14T02:42:00;6.27;;;4.73;;
13868;SDS011;7004;48.206;16.402;2023-06-14T02:44:26;4.80;;;4.30;;
13868;SDS011;7004;48.206;16.402;2023-06-14T02:46:53;5.87;;;4.60;;
13868;SDS011;7004;48.206;16.402;2023-06-14T02:49:21;5.97;;;4.30;;
13868;SDS011;7004;48.206;16.402;2023-06-14T02:51:48;6.57;;;4.23;;
13868;SDS011;7004;48.206;16.402;2023-06-14T02:54:14;4.70;;;4.10;;
13868;SDS011;7004;48.206;16.402;2023-06-14T02:56:41;4.97;;;4.03;;
13868;SDS011;7004;48.206;16.402;2023-06-14T02:59:07;4.77;;;4.27;;
13868;SDS011;7004;48.206;16.402;2023-06-14T03:01:34;4.50;;;4.10;;
13868;SDS011;7004;48.206;16.402;2023-06-14T03:04:01;5.00;;;4.20;;
13868;SDS011;7004;48.206;16.402;2023-06-14T03:06:29;5.90;;;4.50;;
13868;SDS011;7004;48.206;16.402;2023-06-14T03:08:56;5.57;;;4.23;;
13868;SDS011;7004;48.206;16.402;2023-06-14T03:11:41;5.80;;;4.53;;
13868;SDS011;7004;48.206;16.402;2023-06-14T03:14:07;5.37;;;4.50;;
13868;SDS011;7004;48.206;16.402;2023-06-14T03:16:33;4.87;;;4.13;;
13868;SDS011;7004;48.206;16.402;2023-06-14T03:19:00;5.13;;;4.50;;
13868;SDS011;7004;48.206;16.402;2023-06-14T03:21:26;4.60;;;4.10;;
13868;SDS011;7004;48.206;16.402;2023-06-14T03:23:53;4.40;;;4.00;;
13868;SDS011;7004;48.206;16.402;2023-06-14T03:26:19;5.63;;;5.07;;
13868;SDS011;7004;48.206;16.402;2023-06-14T03:28:45;6.97;;;4.40;;
13868;SDS011;7004;48.206;16.402;2023-06-14T03:31:14;6.67;;;4.40;;
13868;SDS011;7004;48.206;16.402;2023-06-14T03:33:41;5.83;;;4.70;;
13868;SDS011;7004;48.206;16.402;2023-06-14T03:36:08;4.83;;;4.30;;
13868;SDS011;7004;48.206;16.402;2023-06-14T03:38:34;6.10;;;4.77;;
13868;SDS011;7004;48.206;16.402;2023-06-14T03:41:00;5.93;;;4.20;;
13868;SDS011;7004;48.206;16.402;2023-06-14T03:43:27;4.93;;;4.43;;
13868;SDS011;7004;48.206;16.402;2023-06-14T03:45:55;4.90;;;4.40;;
13868;SDS011;7004;48.206;16.402;2023-06-14T03:48:21;6.37;;;4.43;;
13868;SDS011;7004;48.206;16.402;2023-06-14T03:50:47;6.20;;;4.57;;
13868;SDS011;7004;48.206;16.402;2023-06-14T03:53:13;6.03;;;4.80;;
13868;SDS011;7004;48.206;16.402;2023-06-14T03:55:40;5.07;;;4.40;;
13868;SDS011;7004;48.206;16.402;2023-06-14T03:58:06;6.77;;;4.37;;
13868;SDS011;7004;48.206;16.402;2023-06-14T04:00:32;5.13;;;4.40;;
13868;SDS011;7004;48.206;16.402;2023-06-14T04:02:59;4.97;;;4.47;;
13868;SDS011;7004;48.206;16.402;2023-06-14T04:05:25;4.57;;;4.17;;
13868;SDS011;7004;48.206;16.402;2023-06-14T04:07:54;5.20;;;4.37;;
13868;SDS011;7004;48.206;16.402;2023-06-14T04:10:21;5.83;;;4.50;;
13868;SDS011;7004;48.206;16.402;2023-06-14T04:12:48;7.00;;;4.80;;
13868;SDS011;7004;48.206;16.402;2023-06-14T04:15:14;4.67;;;4.20;;
13868;SDS011;7004;48.206;16.402;2023-06-14T04:17:40;4.77;;;4.30;;
13868;SDS011;7004;48.206;16.402;2023-06-14T04:20:07;4.47;;;4.00;;
13868;SDS011;7004;48.206;16.402;2023-06-14T04:22:35;5.50;;;4.83;;
13868;SDS011;7004;48.206;16.402;2023-06-14T04:25:01;5.43;;;4.30;;
13868;SDS011;7004;48.206;16.402;2023-06-14T04:27:28;7.40;;;4.60;;
13868;SDS011;7004;48.206;16.402;2023-06-14T04:29:58;9.17;;;4.73;;
13868;SDS011;7004;48.206;16.402;2023-06-14T04:32:27;5.90;;;4.63;;
13868;SDS011;7004;48.206;16.402;2023-06-14T04:34:59;5.43;;;4.33;;
13868;SDS011;7004;48.206;16.402;2023-06-14T04:37:28;9.23;;;4.37;;
13868;SDS011;7004;48.206;16.402;2023-06-14T04:39:55;5.90;;;4.33;;
13868;SDS011;7004;48.206;16.402;2023-06-14T04:42:22;4.73;;;4.33;;
13868;SDS011;7004;48.206;16.402;2023-06-14T04:44:55;8.20;;;4.53;;
13868;SDS011;7004;48.206;16.402;2023-06-14T04:47:22;5.67;;;4.60;;
13868;SDS011;7004;48.206;16.402;2023-06-14T04:49:50;6.10;;;4.60;;
13868;SDS011;7004;48.206;16.402;2023-06-14T04:52:17;5.20;;;4.40;;
13868;SDS011;7004;48.206;16.402;2023-06-14T04:54:46;6.70;;;4.27;;
13868;SDS011;7004;48.206;16.402;2023-06-14T04:57:14;5.07;;;3.90;;
13868;SDS011;7004;48.206;16.402;2023-06-14T04:59:45;5.20;;;4.13;;
13868;SDS011;7004;48.206;16.402;2023-06-14T05:02:11;5.00;;;4.23;;
13868;SDS011;7004;48.206;16.402;2023-06-14T05:04:39;4.53;;;4.13;;
13868;SDS011;7004;48.206;16.402;2023-06-14T05:07:08;6.23;;;4.00;;
13868;SDS011;7004;48.206;16.402;2023-06-14T05:09:36;4.67;;;4.17;;
13868;SDS011;7004;48.206;16.402;2023-06-14T05:12:02;6.07;;;4.53;;
13868;SDS011;7004;48.206;16.402;2023-06-14T05:14:29;5.50;;;4.07;;
13868;SDS011;7004;48.206;16.402;2023-06-14T05:16:55;5.10;;;4.17;;
13868;SDS011;7004;48.206;16.402;2023-06-14T05:19:22;4.43;;;3.67;;
13868;SDS011;7004;48.206;16.402;2023-06-14T05:21:49;6.30;;;3.50;;
13868;SDS011;7004;48.206;16.402;2023-06-14T05:24:15;5.87;;;3.80;;
13868;SDS011;7004;48.206;16.402;2023-06-14T05:26:43;4.37;;;3.50;;
13868;SDS011;7004;48.206;16.402;2023-06-14T05:29:09;8.00;;;3.90;;
13868;SDS011;7004;48.206;16.402;2023-06-14T05:31:35;6.47;;;3.80;;
13868;SDS011;7004;48.206;16.402;2023-06-14T05:34:02;4.00;;;3.20;;
13868;SDS011;7004;48.206;16.402;2023-06-14T05:36:28;6.03;;;4.00;;
13868;SDS011;7004;48.206;16.402;2023-06-14T05:38:54;5.70;;;4.13;;
13868;SDS011;7004;48.206;16.402;2023-06-14T05:41:28;3.83;;;3.43;;
13868;SDS011;7004;48.206;16.402;2023-06-14T05:43:55;4.13;;;3.50;;
13868;SDS011;7004;48.206;16.402;2023-06-14T05:46:22;4.07;;;3.57;;
13868;SDS011;7004;48.206;16.402;2023-06-14T05:48:52;4.00;;;3.60;;
13868;SDS011;7004;48.206;16.402;2023-06-14T05:51:19;4.90;;;3.33;;
13868;SDS011;7004;48.206;16.402;2023-06-14T05:53:45;5.10;;;3.90;;
13868;SDS011;7004;48.206;16.402;2023-06-14T05:56:12;3.97;;;3.57;;
13868;SDS011;7004;48.206;16.402;2023-06-14T05:58:39;5.37;;;3.83;;
13868;SDS011;7004;48.206;16.402;2023-06-14T06:01:06;4.30;;;3.70;;
13868;SDS011;7004;48.206;16.402;2023-06-14T06:03:32;4.13;;;3.70;;
13868;SDS011;7004;48.206;16.402;2023-06-14T06:05:58;7.10;;;3.53;;
13868;SDS011;7004;48.206;16.402;2023-06-14T06:08:24;3.83;;;3.43;;
13868;SDS011;7004;48.206;16.402;2023-06-14T06:10:52;5.00;;;3.23;;
13868;SDS011;7004;48.206;16.402;2023-06-14T06:13:18;4.87;;;3.73;;
13868;SDS011;7004;48.206;16.402;2023-06-14T06:15:44;4.63;;;3.77;;
13868;SDS011;7004;48.206;16.402;2023-06-14T06:18:11;4.97;;;3.60;;
13868;SDS011;7004;48.206;16.402;2023-06-14T06:20:37;6.57;;;3.77;;
13868;SDS011;7004;48.206;16.402;2023-06-14T06:23:03;3.70;;;3.40;;
13868;SDS011;7004;48.206;16.402;2023-06-14T06:25:30;6.77;;;4.37;;
13868;SDS011;7004;48.206;16.402;2023-06-14T06:27:57;4.23;;;3.83;;
13868;SDS011;7004;48.206;16.402;2023-06-14T06:30:24;3.97;;;3.57;;
13868;SDS011;7004;48.206;16.402;2023-06-14T06:32:53;4.03;;;3.63;;
13868;SDS011;7004;48.206;16.402;2023-06-14T06:35:21;4.53;;;3.63;;
13868;SDS011;7004;48.206;16.402;2023-06-14T06:37:47;5.47;;;3.80;;
13868;SDS011;7004;48.206;16.402;2023-06-14T06:40:13;5.77;;;4.10;;
13868;SDS011;7004;48.206;16.402;2023-06-14T06:42:39;6.70;;;4.03;;
13868;SDS011;7004;48.206;16.402;2023-06-14T06:45:05;5.20;;;3.97;;
13868;SDS011;7004;48.206;16.402;2023-06-14T06:47:32;4.97;;;4.47;;
13868;SDS011;7004;48.206;16.402;2023-06-14T06:49:58;4.40;;;4.00;;
13868;SDS011;7004;48.206;16.402;2023-06-14T06:52:24;6.17;;;3.90;;
13868;SDS011;7004;48.206;16.402;2023-06-14T06:54:51;4.10;;;3.70;;
13868;SDS011;7004;48.206;16.402;2023-06-14T06:57:20;5.40;;;3.80;;
13868;SDS011;7004;48.206;16.402;2023-06-14T06:59:48;4.03;;;3.63;;
13868;SDS011;7004;48.206;16.402;2023-06-14T07:02:18;4.97;;;3.97;;
13868;SDS011;7004;48.206;16.402;2023-06-14T07:04:44;4.30;;;3.87;;
13868;SDS011;7004;48.206;16.402;2023-06-14T07:07:10;4.07;;;3.57;;
13868;SDS011;7004;48.206;16.402;2023-06-14T07:09:36;12.97;;;4.63;;
13868;SDS011;7004;48.206;16.402;2023-06-14T07:12:02;4.30;;;3.87;;
13868;SDS011;7004;48.206;16.402;2023-06-14T07:14:29;5.07;;;4.10;;
13868;SDS011;7004;48.206;16.402;2023-06-14T07:16:55;7.00;;;3.60;;
13868;SDS011;7004;48.206;16.402;2023-06-14T07:19:21;6.47;;;3.63;;
13868;SDS011;7004;48.206;16.402;2023-06-14T07:21:47;4.07;;;3.67;;
13868;SDS011;7004;48.206;16.402;2023-06-14T07:24:13;3.70;;;3.40;;
13868;SDS011;7004;48.206;16.402;2023-06-14T07:26:40;6.33;;;3.80;;
13868;SDS011;7004;48.206;16.402;2023-06-14T07:29:06;4.30;;;3.90;;
13868;SDS011;7004;48.206;16.402;2023-06-14T07:31:32;3.93;;;3.57;;
13868;SDS011;7004;48.206;16.402;2023-06-14T07:33:59;4.03;;;3.47;;
13868;SDS011;7004;48.206;16.402;2023-06-14T07:36:25;3.93;;;3.10;;
13868;SDS011;7004;48.206;16.402;2023-06-14T07:38:52;4.87;;;3.53;;
13868;SDS011;7004;48.206;16.402;2023-06-14T07:41:18;4.33;;;3.60;;
13868;SDS011;7004;48.206;16.402;2023-06-14T07:43:44;3.80;;;3.37;;
13868;SDS011;7004;48.206;16.402;2023-06-14T07:46:10;5.43;;;3.60;;
13868;SDS011;7004;48.206;16.402;2023-06-14T07:48:36;4.60;;;3.63;;
13868;SDS011;7004;48.206;16.402;2023-06-14T07:51:02;4.17;;;3.67;;
13868;SDS011;7004;48.206;16.402;2023-06-14T07:53:29;3.93;;;3.47;;
13868;SDS011;7004;48.206;16.402;2023-06-14T07:55:56;4.00;;;3.70;;
13868;SDS011;7004;48.206;16.402;2023-06-14T07:58:22;4.10;;;3.47;;
13868;SDS011;7004;48.206;16.402;2023-06-14T08:00:48;5.03;;;4.00;;
13868;SDS011;7004;48.206;16.402;2023-06-14T08:03:15;4.07;;;3.60;;
13868;SDS011;7004;48.206;16.402;2023-06-14T08:05:41;4.33;;;3.90;;
13868;SDS011;7004;48.206;16.402;2023-06-14T08:08:07;5.60;;;3.70;;
13868;SDS011;7004;48.206;16.402;2023-06-14T08:10:33;4.17;;;3.73;;
13868;SDS011;7004;48.206;16.402;2023-06-14T08:12:59;5.37;;;3.40;;
13868;SDS011;7004;48.206;16.402;2023-06-14T08:15:25;4.23;;;3.83;;
13868;SDS011;7004;48.206;16.402;2023-06-14T08:17:51;4.53;;;4.13;;
13868;SDS011;7004;48.206;16.402;2023-06-14T08:20:17;4.47;;;3.77;;
13868;SDS011;7004;48.206;16.402;2023-06-14T08:22:43;4.77;;;3.80;;
13868;SDS011;7004;48.206;16.402;2023-06-14T08:25:11;5.30;;;3.80;;
13868;SDS011;7004;48.206;16.402;2023-06-14T08:27:37;4.90;;;4.40;;
13868;SDS011;7004;48.206;16.402;2023-06-14T08:30:03;4.20;;;3.80;;
13868;SDS011;7004;48.206;16.402;2023-06-14T08:32:30;4.53;;;4.07;;
13868;SDS011;7004;48.206;16.402;2023-06-14T08:34:56;5.33;;;3.77;;
13868;SDS011;7004;48.206;16.402;2023-06-14T08:37:22;4.40;;;4.00;;
13868;SDS011;7004;48.206;16.402;2023-06-14T08:39:49;5.13;;;3.80;;
13868;SDS011;7004;48.206;16.402;2023-06-14T08:42:15;4.87;;;3.90;;
13868;SDS011;7004;48.206;16.402;2023-06-14T08:44:44;3.93;;;3.53;;
13868;SDS011;7004;48.206;16.402;2023-06-14T08:47:10;3.87;;;3.57;;
13868;SDS011;7004;48.206;16.402;2023-06-14T08:49:37;4.50;;;3.60;;
13868;SDS011;7004;48.206;16.402;2023-06-14T08:52:05;5.40;;;3.57;;
13868;SDS011;7004;48.206;16.402;2023-06-14T08:54:35;4.20;;;3.70;;
13868;SDS011;7004;48.206;16.402;2023-06-14T08:57:10;5.73;;;4.03;;
13868;SDS011;7004;48.206;16.402;2023-06-14T08:59:49;6.23;;;3.83;;
13868;SDS011;7004;48.206;16.402;2023-06-14T09:02:18;3.97;;;3.60;;
13868;SDS011;7004;48.206;16.402;2023-06-14T09:04:45;4.00;;;3.60;;
13868;SDS011;7004;48.206;16.402;2023-06-14T09:07:11;3.90;;;3.50;;
13868;SDS011;7004;48.206;16.402;2023-06-14T09:09:38;4.33;;;3.53;;
13868;SDS011;7004;48.206;16.402;2023-06-14T09:12:10;3.83;;;3.47;;
13868;SDS011;7004;48.206;16.402;2023-06-14T09:14:37;4.67;;;3.90;;
13868;SDS011;7004;48.206;16.402;2023-06-14T09:17:05;3.73;;;3.30;;
13868;SDS011;7004;48.206;16.402;2023-06-14T09:19:32;3.90;;;3.60;;
13868;SDS011;7004;48.206;16.402;2023-06-14T09:22:01;4.10;;;3.43;;
13868;SDS011;7004;48.206;16.402;2023-06-14T09:24:29;4.07;;;3.50;;
13868;SDS011;7004;48.206;16.402;2023-06-14T09:26:55;3.57;;;3.27;;
13868;SDS011;7004;48.206;16.402;2023-06-14T09:29:23;4.13;;;3.73;;
13868;SDS011;7004;48.206;16.402;2023-06-14T09:31:50;5.13;;;3.97;;
13868;SDS011;7004;48.206;16.402;2023-06-14T09:34:16;5.17;;;3.60;;
13868;SDS011;7004;48.206;16.402;2023-06-14T09:36:45;6.40;;;3.77;;
13868;SDS011;7004;48.206;16.402;2023-06-14T09:39:11;5.00;;;3.50;;
13868;SDS011;7004;48.206;16.402;2023-06-14T09:41:44;4.10;;;3.70;;
13868;SDS011;7004;48.206;16.402;2023-06-14T09:44:14;3.40;;;3.10;;
13868;SDS011;7004;48.206;16.402;2023-06-14T09:46:42;5.33;;;3.63;;
13868;SDS011;7004;48.206;16.402;2023-06-14T09:49:09;4.47;;;3.90;;
13868;SDS011;7004;48.206;16.402;2023-06-14T09:51:36;5.90;;;3.93;;
13868;SDS011;7004;48.206;16.402;2023-06-14T09:54:13;4.67;;;4.03;;
13868;SDS011;7004;48.206;16.402;2023-06-14T09:56:44;4.00;;;3.60;;
13868;SDS011;7004;48.206;16.402;2023-06-14T09:59:12;5.27;;;3.77;;
13868;SDS011;7004;48.206;16.402;2023-06-14T10:01:42;3.67;;;3.37;;
13868;SDS011;7004;48.206;16.402;2023-06-14T10:04:09;3.93;;;3.53;;
13868;SDS011;7004;48.206;16.402;2023-06-14T10:06:36;4.00;;;3.70;;
13868;SDS011;7004;48.206;16.402;2023-06-14T10:09:07;3.90;;;3.50;;
13868;SDS011;7004;48.206;16.402;2023-06-14T10:11:35;4.57;;;4.17;;
13868;SDS011;7004;48.206;16.402;2023-06-14T10:14:03;5.83;;;3.50;;
13868;SDS011;7004;48.206;16.402;2023-06-14T10:16:32;5.00;;;3.67;;
13868;SDS011;7004;48.206;16.402;2023-06-14T10:24:42;4.17;;;3.57;;
13868;SDS011;7004;48.206;16.402;2023-06-14T10:27:10;4.00;;;3.60;;
13868;SDS011;7004;48.206;16.402;2023-06-14T10:32:23;5.33;;;3.93;;
13868;SDS011;7004;48.206;16.402;2023-06-14T10:34:55;6.30;;;3.87;;
13868;SDS011;7004;48.206;16.402;2023-06-14T10:37:25;5.00;;;3.50;;
13868;SDS011;7004;48.206;16.402;2023-06-14T10:39:52;3.97;;;3.63;;
13868;SDS011;7004;48.206;16.402;2023-06-14T10:42:21;4.40;;;3.40;;
13868;SDS011;7004;48.206;16.402;2023-06-14T10:44:51;3.70;;;3.40;;
13868;SDS011;7004;48.206;16.402;2023-06-14T10:49:56;3.57;;;3.27;;
13868;SDS011;7004;48.206;16.402;2023-06-14T10:52:40;3.70;;;3.40;;
13868;SDS011;7004;48.206;16.402;2023-06-14T10:55:15;4.03;;;3.50;;
13868;SDS011;7004;48.206;16.402;2023-06-14T10:57:48;3.50;;;3.20;;
13868;SDS011;7004;48.206;16.402;2023-06-14T11:00:21;4.40;;;3.50;;
13868;SDS011;7004;48.206;16.402;2023-06-14T11:11:05;3.60;;;3.00;;
13868;SDS011;7004;48.206;16.402;2023-06-14T11:13:36;3.53;;;3.17;;
13868;SDS011;7004;48.206;16.402;2023-06-14T11:16:12;3.17;;;2.87;;
13868;SDS011;7004;48.206;16.402;2023-06-14T11:18:40;3.53;;;3.13;;
13868;SDS011;7004;48.206;16.402;2023-06-14T11:21:08;4.97;;;3.33;;
13868;SDS011;7004;48.206;16.402;2023-06-14T11:23:34;6.37;;;3.73;;
13868;SDS011;7004;48.206;16.402;2023-06-14T11:26:01;3.73;;;3.13;;
13868;SDS011;7004;48.206;16.402;2023-06-14T11:28:36;3.83;;;3.43;;
13868;SDS011;7004;48.206;16.402;2023-06-14T11:31:04;3.70;;;3.27;;
13868;SDS011;7004;48.206;16.402;2023-06-14T11:33:30;3.53;;;3.20;;
13868;SDS011;7004;48.206;16.402;2023-06-14T11:35:56;3.87;;;3.47;;
13868;SDS011;7004;48.206;16.402;2023-06-14T11:38:23;4.53;;;3.57;;
13868;SDS011;7004;48.206;16.402;2023-06-14T11:40:50;3.60;;;3.30;;
13868;SDS011;7004;48.206;16.402;2023-06-14T11:43:17;7.47;;;3.53;;
13868;SDS011;7004;48.206;16.402;2023-06-14T11:45:43;4.00;;;3.30;;
13868;SDS011;7004;48.206;16.402;2023-06-14T11:48:14;3.30;;;3.10;;
13868;SDS011;7004;48.206;16.402;2023-06-14T11:50:40;3.60;;;3.30;;
13868;SDS011;7004;48.206;16.402;2023-06-14T11:53:06;4.00;;;3.30;;
13868;SDS011;7004;48.206;16.402;2023-06-14T11:55:36;3.70;;;3.30;;
13868;SDS011;7004;48.206;16.402;2023-06-14T11:58:04;5.47;;;3.67;;
13868;SDS011;7004;48.206;16.402;2023-06-14T12:00:30;8.70;;;3.20;;
13868;SDS011;7004;48.206;16.402;2023-06-14T12:02:57;3.73;;;2.90;;
13868;SDS011;7004;48.206;16.402;2023-06-14T12:05:24;4.97;;;3.40;;
13868;SDS011;7004;48.206;16.402;2023-06-14T12:07:58;3.90;;;3.20;;
13868;SDS011;7004;48.206;16.402;2023-06-14T12:10:29;3.67;;;3.33;;
13868;SDS011;7004;48.206;16.402;2023-06-14T12:13:04;3.30;;;3.00;;
13868;SDS011;7004;48.206;16.402;2023-06-14T12:15:31;4.50;;;3.10;;
13868;SDS011;7004;48.206;16.402;2023-06-14T12:17:58;4.03;;;3.47;;
13868;SDS011;7004;48.206;16.402;2023-06-14T12:20:28;4.60;;;3.30;;
13868;SDS011;7004;48.206;16.402;2023-06-14T12:22:56;5.20;;;3.37;;
13868;SDS011;7004;48.206;16.402;2023-06-14T12:25:32;6.23;;;3.17;;
13868;SDS011;7004;48.206;16.402;2023-06-14T12:28:08;5.00;;;3.30;;
13868;SDS011;7004;48.206;16.402;2023-06-14T12:30:35;4.67;;;3.23;;
13868;SDS011;7004;48.206;16.402;2023-06-14T12:33:03;4.20;;;3.40;;
13868;SDS011;7004;48.206;16.402;2023-06-14T12:35:29;6.90;;;3.30;;
13868;SDS011;7004;48.206;16.402;2023-06-14T12:37:57;3.90;;;3.60;;
13868;SDS011;7004;48.206;16.402;2023-06-14T12:40:23;3.87;;;3.43;;
13868;SDS011;7004;48.206;16.402;2023-06-14T12:42:49;5.70;;;3.43;;
13868;SDS011;7004;48.206;16.402;2023-06-14T12:45:15;4.30;;;3.80;;
13868;SDS011;7004;48.206;16.402;2023-06-14T12:47:41;3.47;;;3.17;;
13868;SDS011;7004;48.206;16.402;2023-06-14T12:50:08;6.60;;;3.37;;
13868;SDS011;7004;48.206;16.402;2023-06-14T12:52:36;3.93;;;3.40;;
13868;SDS011;7004;48.206;16.402;2023-06-14T12:55:04;3.90;;;3.50;;
13868;SDS011;7004;48.206;16.402;2023-06-14T12:57:34;4.97;;;3.43;;
13868;SDS011;7004;48.206;16.402;2023-06-14T13:00:22;6.07;;;3.60;;
13868;SDS011;7004;48.206;16.402;2023-06-14T13:02:48;4.47;;;3.20;;
13868;SDS011;7004;48.206;16.402;2023-06-14T13:05:14;4.53;;;3.87;;
13868;SDS011;7004;48.206;16.402;2023-06-14T13:07:40;3.80;;;3.37;;
13868;SDS011;7004;48.206;16.402;2023-06-14T13:10:06;3.33;;;3.03;;
13868;SDS011;7004;48.206;16.402;2023-06-14T13:12:33;3.67;;;3.30;;
13868;SDS011;7004;48.206;16.402;2023-06-14T13:14:59;4.80;;;3.70;;
13868;SDS011;7004;48.206;16.402;2023-06-14T13:17:25;4.37;;;3.97;;
13868;SDS011;7004;48.206;16.402;2023-06-14T13:19:51;8.27;;;3.33;;
13868;SDS011;7004;48.206;16.402;2023-06-14T13:22:18;3.50;;;3.20;;
13868;SDS011;7004;48.206;16.402;2023-06-14T13:24:44;6.00;;;3.60;;
13868;SDS011;7004;48.206;16.402;2023-06-14T13:27:10;3.67;;;3.37;;
13868;SDS011;7004;48.206;16.402;2023-06-14T13:29:39;4.70;;;3.47;;
13868;SDS011;7004;48.206;16.402;2023-06-14T13:32:06;3.50;;;3.20;;
13868;SDS011;7004;48.206;16.402;2023-06-14T13:34:32;5.00;;;3.70;;
13868;SDS011;7004;48.206;16.402;2023-06-14T13:36:58;6.43;;;3.53;;
13868;SDS011;7004;48.206;16.402;2023-06-14T13:39:25;3.60;;;3.30;;
13868;SDS011;7004;48.206;16.402;2023-06-14T13:41:51;3.73;;;3.33;;
13868;SDS011;7004;48.206;16.402;2023-06-14T13:44:17;7.70;;;3.43;;
13868;SDS011;7004;48.206;16.402;2023-06-14T13:46:46;4.77;;;3.57;;
13868;SDS011;7004;48.206;16.402;2023-06-14T13:49:12;5.10;;;3.50;;
13868;SDS011;7004;48.206;16.402;2023-06-14T13:51:38;4.47;;;3.67;;
13868;SDS011;7004;48.206;16.402;2023-06-14T13:54:05;4.43;;;3.60;;
13868;SDS011;7004;48.206;16.402;2023-06-14T13:56:32;4.00;;;3.60;;
13868;SDS011;7004;48.206;16.402;2023-06-14T13:58:58;4.60;;;3.60;;
13868;SDS011;7004;48.206;16.402;2023-06-14T14:01:25;3.90;;;3.50;;
13868;SDS011;7004;48.206;16.402;2023-06-14T14:03:54;5.17;;;3.43;;
13868;SDS011;7004;48.206;16.402;2023-06-14T14:06:20;3.93;;;3.40;;
13868;SDS011;7004;48.206;16.402;2023-06-14T14:08:46;3.40;;;2.97;;
13868;SDS011;7004;48.206;16.402;2023-06-14T14:11:12;4.23;;;3.63;;
13868;SDS011;7004;48.206;16.402;2023-06-14T14:13:39;4.83;;;3.97;;
13868;SDS011;7004;48.206;16.402;2023-06-14T14:16:05;4.10;;;3.70;;
13868;SDS011;7004;48.206;16.402;2023-06-14T14:18:31;3.93;;;3.53;;
13868;SDS011;7004;48.206;16.402;2023-06-14T14:20:58;4.30;;;3.60;;
13868;SDS011;7004;48.206;16.402;2023-06-14T14:23:26;3.80;;;3.50;;
13868;SDS011;7004;48.206;16.402;2023-06-14T14:25:52;4.43;;;3.20;;
13868;SDS011;7004;48.206;16.402;2023-06-14T14:28:18;3.57;;;3.10;;
13868;SDS011;7004;48.206;16.402;2023-06-14T14:30:46;3.37;;;3.07;;
13868;SDS011;7004;48.206;16.402;2023-06-14T14:33:15;4.83;;;3.50;;
13868;SDS011;7004;48.206;16.402;2023-06-14T14:35:43;5.50;;;3.47;;
13868;SDS011;7004;48.206;16.402;2023-06-14T14:38:12;5.70;;;3.57;;
13868;SDS011;7004;48.206;16.402;2023-06-14T14:40:41;3.60;;;3.30;;
13868;SDS011;7004;48.206;16.402;2023-06-14T14:43:08;3.73;;;3.40;;
13868;SDS011;7004;48.206;16.402;2023-06-14T14:45:34;5.47;;;3.87;;
13868;SDS011;7004;48.206;16.402;2023-06-14T14:48:01;3.67;;;3.10;;
13868;SDS011;7004;48.206;16.402;2023-06-14T14:50:28;5.27;;;3.77;;
13868;SDS011;7004;48.206;16.402;2023-06-14T14:52:55;4.57;;;3.50;;
13868;SDS011;7004;48.206;16.402;2023-06-14T14:55:21;4.33;;;3.00;;
13868;SDS011;7004;48.206;16.402;2023-06-14T14:57:48;3.80;;;3.40;;
13868;SDS011;7004;48.206;16.402;2023-06-14T15:00:14;4.87;;;3.40;;
13868;SDS011;7004;48.206;16.402;2023-06-14T15:02:41;3.77;;;3.00;;
13868;SDS011;7004;48.206;16.402;2023-06-14T15:05:07;3.47;;;3.17;;
13868;SDS011;7004;48.206;16.402;2023-06-14T15:07:34;3.50;;;3.20;;
13868;SDS011;7004;48.206;16.402;2023-06-14T15:10:00;6.00;;;3.23;;
13868;SDS011;7004;48.206;16.402;2023-06-14T15:12:26;4.17;;;3.60;;
13868;SDS011;7004;48.206;16.402;2023-06-14T15:14:53;3.67;;;3.37;;
13868;SDS011;7004;48.206;16.402;2023-06-14T15:17:19;3.83;;;3.17;;